sensor_id;sensor_type;location;lat;lon;timestamp;P1;durP1;ratioP1;P2;durP2;ratioP2
66487;SDS011;53304;54.550;18.526;2022-08-01T00:01:56;3.20;;;1.60;;
66487;SDS011;53304;54.550;18.526;2022-08-01T00:04:21;3.30;;;1.70;;
66487;SDS011;53304;54.550;18.526;2022-08-01T00:06:47;2.88;;;1.67;;
66487;SDS011;53304;54.550;18.526;2022-08-01T00:09:12;3.60;;;1.80;;
66487;SDS011;53304;54.550;18.526;2022-08-01T00:11:40;2.00;;;1.42;;
66487;SDS011;53304;54.550;18.526;2022-08-01T00:14:06;4.43;;;1.70;;
66487;SDS011;53304;54.550;18.526;2022-08-01T00:16:36;2.50;;;1.50;;
66487;SDS011;53304;54.550;18.526;2022-08-01T00:19:06;3.25;;;1.65;;
66487;SDS011;53304;54.550;18.526;2022-08-01T00:21:37;3.08;;;1.70;;
66487;SDS011;53304;54.550;18.526;2022-08-01T00:24:07;2.72;;;1.50;;
66487;SDS011;53304;54.550;18.526;2022-08-01T00:26:35;3.30;;;1.70;;
66487;SDS011;53304;54.550;18.526;2022-08-01T00:29:00;2.70;;;1.40;;
66487;SDS011;53304;54.550;18.526;2022-08-01T00:31:26;3.80;;;1.70;;
66487;SDS011;53304;54.550;18.526;2022-08-01T00:33:51;2.00;;;1.40;;
66487;SDS011;53304;54.550;18.526;2022-08-01T00:36:17;2.50;;;1.40;;
66487;SDS011;53304;54.550;18.526;2022-08-01T00:38:42;3.22;;;1.42;;
66487;SDS011;53304;54.550;18.526;2022-08-01T00:41:07;2.80;;;1.38;;
66487;SDS011;53304;54.550;18.526;2022-08-01T00:43:35;3.40;;;1.70;;
66487;SDS011;53304;54.550;18.526;2022-08-01T00:46:00;2.22;;;1.30;;
66487;SDS011;53304;54.550;18.526;2022-08-01T00:48:26;2.85;;;1.50;;
66487;SDS011;53304;54.550;18.526;2022-08-01T00:50:51;4.03;;;1.60;;
66487;SDS011;53304;54.550;18.526;2022-08-01T00:53:17;4.45;;;1.73;;
66487;SDS011;53304;54.550;18.526;2022-08-01T00:55:45;2.67;;;1.60;;
66487;SDS011;53304;54.550;18.526;2022-08-01T00:58:14;2.00;;;1.52;;
66487;SDS011;53304;54.550;18.526;2022-08-01T01:00:39;3.45;;;1.50;;
66487;SDS011;53304;54.550;18.526;2022-08-01T01:03:07;2.60;;;1.50;;
66487;SDS011;53304;54.550;18.526;2022-08-01T01:05:36;2.25;;;1.40;;
66487;SDS011;53304;54.550;18.526;2022-08-01T01:08:14;2.72;;;1.50;;
66487;SDS011;53304;54.550;18.526;2022-08-01T01:10:52;3.08;;;1.60;;
66487;SDS011;53304;54.550;18.526;2022-08-01T01:13:38;3.70;;;1.50;;
66487;SDS011;53304;54.550;18.526;2022-08-01T01:16:14;2.80;;;1.50;;
66487;SDS011;53304;54.550;18.526;2022-08-01T01:18:50;3.25;;;1.45;;
66487;SDS011;53304;54.550;18.526;2022-08-01T01:29:23;2.70;;;1.60;;
66487;SDS011;53304;54.550;18.526;2022-08-01T01:34:32;2.95;;;1.70;;
66487;SDS011;53304;54.550;18.526;2022-08-01T01:36:59;1.80;;;1.40;;
66487;SDS011;53304;54.550;18.526;2022-08-01T01:39:29;2.88;;;1.52;;
66487;SDS011;53304;54.550;18.526;2022-08-01T01:41:55;3.10;;;1.40;;
66487;SDS011;53304;54.550;18.526;2022-08-01T01:44:24;2.38;;;1.50;;
66487;SDS011;53304;54.550;18.526;2022-08-01T01:46:53;2.28;;;1.30;;
66487;SDS011;53304;54.550;18.526;2022-08-01T01:49:23;2.85;;;1.35;;
66487;SDS011;53304;54.550;18.526;2022-08-01T01:51:51;2.53;;;1.60;;
66487;SDS011;53304;54.550;18.526;2022-08-01T01:54:19;3.10;;;1.58;;
66487;SDS011;53304;54.550;18.526;2022-08-01T01:56:45;2.42;;;1.40;;
66487;SDS011;53304;54.550;18.526;2022-08-01T01:59:14;2.80;;;1.50;;
66487;SDS011;53304;54.550;18.526;2022-08-01T02:01:44;2.60;;;1.50;;
66487;SDS011;53304;54.550;18.526;2022-08-01T02:04:14;2.13;;;1.50;;
66487;SDS011;53304;54.550;18.526;2022-08-01T02:06:40;3.92;;;1.50;;
66487;SDS011;53304;54.550;18.526;2022-08-01T02:09:07;2.65;;;1.30;;
66487;SDS011;53304;54.550;18.526;2022-08-01T02:11:39;2.60;;;1.70;;
66487;SDS011;53304;54.550;18.526;2022-08-01T02:14:05;2.58;;;1.55;;
66487;SDS011;53304;54.550;18.526;2022-08-01T02:16:33;2.00;;;1.38;;
66487;SDS011;53304;54.550;18.526;2022-08-01T02:19:00;3.25;;;1.42;;
66487;SDS011;53304;54.550;18.526;2022-08-01T02:21:33;2.70;;;1.42;;
66487;SDS011;53304;54.550;18.526;2022-08-01T02:24:10;2.38;;;1.30;;
66487;SDS011;53304;54.550;18.526;2022-08-01T02:26:44;2.05;;;1.42;;
66487;SDS011;53304;54.550;18.526;2022-08-01T02:29:14;3.30;;;1.30;;
66487;SDS011;53304;54.550;18.526;2022-08-01T02:31:43;2.25;;;1.40;;
66487;SDS011;53304;54.550;18.526;2022-08-01T02:34:12;2.08;;;1.40;;
66487;SDS011;53304;54.550;18.526;2022-08-01T02:36:40;2.55;;;1.40;;
66487;SDS011;53304;54.550;18.526;2022-08-01T02:39:08;1.80;;;1.35;;
66487;SDS011;53304;54.550;18.526;2022-08-01T02:41:38;3.38;;;1.63;;
66487;SDS011;53304;54.550;18.526;2022-08-01T02:44:09;2.92;;;1.80;;
66487;SDS011;53304;54.550;18.526;2022-08-01T02:46:37;3.10;;;1.92;;
66487;SDS011;53304;54.550;18.526;2022-08-01T02:49:05;3.22;;;1.73;;
66487;SDS011;53304;54.550;18.526;2022-08-01T02:51:35;3.72;;;1.70;;
66487;SDS011;53304;54.550;18.526;2022-08-01T02:54:05;2.75;;;1.63;;
66487;SDS011;53304;54.550;18.526;2022-08-01T02:56:34;3.00;;;1.80;;
66487;SDS011;53304;54.550;18.526;2022-08-01T02:59:08;2.03;;;1.40;;
66487;SDS011;53304;54.550;18.526;2022-08-01T03:01:39;3.45;;;1.60;;
66487;SDS011;53304;54.550;18.526;2022-08-01T03:04:05;4.00;;;1.40;;
66487;SDS011;53304;54.550;18.526;2022-08-01T03:06:31;2.97;;;1.60;;
66487;SDS011;53304;54.550;18.526;2022-08-01T03:09:00;2.97;;;1.65;;
66487;SDS011;53304;54.550;18.526;2022-08-01T03:11:29;3.45;;;1.80;;
66487;SDS011;53304;54.550;18.526;2022-08-01T03:13:56;3.40;;;1.77;;
66487;SDS011;53304;54.550;18.526;2022-08-01T03:16:22;3.40;;;1.67;;
66487;SDS011;53304;54.550;18.526;2022-08-01T03:18:52;2.15;;;1.60;;
66487;SDS011;53304;54.550;18.526;2022-08-01T03:21:19;2.90;;;1.70;;
66487;SDS011;53304;54.550;18.526;2022-08-01T03:23:49;2.78;;;1.73;;
66487;SDS011;53304;54.550;18.526;2022-08-01T03:26:24;4.50;;;1.73;;
66487;SDS011;53304;54.550;18.526;2022-08-01T03:28:57;3.22;;;1.80;;
66487;SDS011;53304;54.550;18.526;2022-08-01T03:31:35;3.03;;;1.50;;
66487;SDS011;53304;54.550;18.526;2022-08-01T03:34:03;2.47;;;1.55;;
66487;SDS011;53304;54.550;18.526;2022-08-01T03:36:32;2.67;;;1.55;;
66487;SDS011;53304;54.550;18.526;2022-08-01T03:39:00;2.75;;;1.70;;
66487;SDS011;53304;54.550;18.526;2022-08-01T03:41:30;2.60;;;1.50;;
66487;SDS011;53304;54.550;18.526;2022-08-01T03:44:01;2.60;;;1.63;;
66487;SDS011;53304;54.550;18.526;2022-08-01T03:46:51;1.92;;;1.50;;
66487;SDS011;53304;54.550;18.526;2022-08-01T03:49:22;2.28;;;1.50;;
66487;SDS011;53304;54.550;18.526;2022-08-01T03:51:52;2.00;;;1.40;;
66487;SDS011;53304;54.550;18.526;2022-08-01T03:54:23;2.88;;;1.50;;
66487;SDS011;53304;54.550;18.526;2022-08-01T03:56:50;2.45;;;1.40;;
66487;SDS011;53304;54.550;18.526;2022-08-01T03:59:16;3.30;;;1.70;;
66487;SDS011;53304;54.550;18.526;2022-08-01T04:01:43;2.63;;;1.50;;
66487;SDS011;53304;54.550;18.526;2022-08-01T04:04:13;2.10;;;1.40;;
66487;SDS011;53304;54.550;18.526;2022-08-01T04:06:40;2.38;;;1.63;;
66487;SDS011;53304;54.550;18.526;2022-08-01T04:09:09;2.13;;;1.40;;
66487;SDS011;53304;54.550;18.526;2022-08-01T04:11:34;2.63;;;1.55;;
66487;SDS011;53304;54.550;18.526;2022-08-01T04:14:01;2.85;;;1.40;;
66487;SDS011;53304;54.550;18.526;2022-08-01T04:16:31;3.08;;;1.30;;
66487;SDS011;53304;54.550;18.526;2022-08-01T04:18:59;3.15;;;1.70;;
66487;SDS011;53304;54.550;18.526;2022-08-01T04:21:25;1.88;;;1.38;;
66487;SDS011;53304;54.550;18.526;2022-08-01T04:23:56;2.58;;;1.50;;
66487;SDS011;53304;54.550;18.526;2022-08-01T04:26:25;3.13;;;1.50;;
66487;SDS011;53304;54.550;18.526;2022-08-01T04:28:53;3.17;;;1.60;;
66487;SDS011;53304;54.550;18.526;2022-08-01T04:31:24;2.85;;;1.42;;
66487;SDS011;53304;54.550;18.526;2022-08-01T04:33:53;3.03;;;1.45;;
66487;SDS011;53304;54.550;18.526;2022-08-01T04:36:23;2.25;;;1.30;;
66487;SDS011;53304;54.550;18.526;2022-08-01T04:38:50;3.08;;;1.40;;
66487;SDS011;53304;54.550;18.526;2022-08-01T04:41:17;1.95;;;1.40;;
66487;SDS011;53304;54.550;18.526;2022-08-01T04:43:46;2.67;;;1.50;;
66487;SDS011;53304;54.550;18.526;2022-08-01T04:46:14;2.33;;;1.40;;
66487;SDS011;53304;54.550;18.526;2022-08-01T04:48:39;3.92;;;1.50;;
66487;SDS011;53304;54.550;18.526;2022-08-01T04:51:11;2.28;;;1.50;;
66487;SDS011;53304;54.550;18.526;2022-08-01T04:53:41;2.63;;;1.48;;
66487;SDS011;53304;54.550;18.526;2022-08-01T04:56:10;2.03;;;1.40;;
66487;SDS011;53304;54.550;18.526;2022-08-01T04:58:38;2.42;;;1.48;;
66487;SDS011;53304;54.550;18.526;2022-08-01T05:01:05;2.17;;;1.23;;
66487;SDS011;53304;54.550;18.526;2022-08-01T05:03:30;2.70;;;1.50;;
66487;SDS011;53304;54.550;18.526;2022-08-01T05:05:58;2.47;;;1.40;;
66487;SDS011;53304;54.550;18.526;2022-08-01T05:08:26;2.25;;;1.50;;
66487;SDS011;53304;54.550;18.526;2022-08-01T05:10:51;2.83;;;1.55;;
66487;SDS011;53304;54.550;18.526;2022-08-01T05:13:17;2.35;;;1.40;;
66487;SDS011;53304;54.550;18.526;2022-08-01T05:15:43;2.25;;;1.42;;
66487;SDS011;53304;54.550;18.526;2022-08-01T05:18:08;2.40;;;1.40;;
66487;SDS011;53304;54.550;18.526;2022-08-01T05:20:34;2.30;;;1.30;;
66487;SDS011;53304;54.550;18.526;2022-08-01T05:23:00;2.10;;;1.33;;
66487;SDS011;53304;54.550;18.526;2022-08-01T05:25:30;2.67;;;1.30;;
66487;SDS011;53304;54.550;18.526;2022-08-01T05:27:58;3.88;;;1.27;;
66487;SDS011;53304;54.550;18.526;2022-08-01T05:30:29;3.17;;;1.30;;
66487;SDS011;53304;54.550;18.526;2022-08-01T05:32:56;2.30;;;1.40;;
66487;SDS011;53304;54.550;18.526;2022-08-01T05:35:24;3.42;;;1.42;;
66487;SDS011;53304;54.550;18.526;2022-08-01T05:37:50;2.17;;;1.30;;
66487;SDS011;53304;54.550;18.526;2022-08-01T05:40:22;2.20;;;1.33;;
66487;SDS011;53304;54.550;18.526;2022-08-01T05:42:48;2.35;;;1.30;;
66487;SDS011;53304;54.550;18.526;2022-08-01T05:45:13;2.30;;;1.42;;
66487;SDS011;53304;54.550;18.526;2022-08-01T05:47:39;3.05;;;1.50;;
66487;SDS011;53304;54.550;18.526;2022-08-01T05:50:04;2.30;;;1.30;;
66487;SDS011;53304;54.550;18.526;2022-08-01T05:52:35;1.73;;;1.20;;
66487;SDS011;53304;54.550;18.526;2022-08-01T05:55:00;2.45;;;1.40;;
66487;SDS011;53304;54.550;18.526;2022-08-01T05:57:28;1.40;;;1.25;;
66487;SDS011;53304;54.550;18.526;2022-08-01T05:59:53;2.53;;;1.30;;
66487;SDS011;53304;54.550;18.526;2022-08-01T06:02:19;2.55;;;1.33;;
66487;SDS011;53304;54.550;18.526;2022-08-01T06:04:47;2.13;;;1.20;;
66487;SDS011;53304;54.550;18.526;2022-08-01T06:07:15;2.17;;;1.30;;
66487;SDS011;53304;54.550;18.526;2022-08-01T06:09:42;1.80;;;1.17;;
66487;SDS011;53304;54.550;18.526;2022-08-01T06:12:08;3.05;;;1.30;;
66487;SDS011;53304;54.550;18.526;2022-08-01T06:14:35;2.35;;;1.20;;
66487;SDS011;53304;54.550;18.526;2022-08-01T06:17:01;2.22;;;1.25;;
66487;SDS011;53304;54.550;18.526;2022-08-01T06:19:28;2.60;;;1.25;;
66487;SDS011;53304;54.550;18.526;2022-08-01T06:21:54;2.97;;;1.40;;
66487;SDS011;53304;54.550;18.526;2022-08-01T06:24:20;2.30;;;1.30;;
66487;SDS011;53304;54.550;18.526;2022-08-01T06:26:49;1.80;;;1.25;;
66487;SDS011;53304;54.550;18.526;2022-08-01T06:29:17;3.95;;;1.27;;
66487;SDS011;53304;54.550;18.526;2022-08-01T06:31:42;2.22;;;1.20;;
66487;SDS011;53304;54.550;18.526;2022-08-01T06:34:07;1.70;;;1.30;;
66487;SDS011;53304;54.550;18.526;2022-08-01T06:36:33;2.33;;;1.30;;
66487;SDS011;53304;54.550;18.526;2022-08-01T06:39:03;1.73;;;1.10;;
66487;SDS011;53304;54.550;18.526;2022-08-01T06:41:28;1.95;;;1.30;;
66487;SDS011;53304;54.550;18.526;2022-08-01T06:43:54;1.92;;;1.20;;
66487;SDS011;53304;54.550;18.526;2022-08-01T06:46:22;2.15;;;1.23;;
66487;SDS011;53304;54.550;18.526;2022-08-01T06:48:47;1.20;;;1.10;;
66487;SDS011;53304;54.550;18.526;2022-08-01T06:51:13;2.22;;;1.30;;
66487;SDS011;53304;54.550;18.526;2022-08-01T06:53:47;2.30;;;1.20;;
66487;SDS011;53304;54.550;18.526;2022-08-01T06:56:12;1.65;;;1.10;;
66487;SDS011;53304;54.550;18.526;2022-08-01T06:58:40;1.58;;;1.20;;
66487;SDS011;53304;54.550;18.526;2022-08-01T07:01:08;2.20;;;1.20;;
66487;SDS011;53304;54.550;18.526;2022-08-01T07:03:36;1.83;;;0.98;;
66487;SDS011;53304;54.550;18.526;2022-08-01T07:06:04;1.73;;;1.23;;
66487;SDS011;53304;54.550;18.526;2022-08-01T07:08:32;1.27;;;1.00;;
66487;SDS011;53304;54.550;18.526;2022-08-01T07:10:58;1.73;;;1.17;;
66487;SDS011;53304;54.550;18.526;2022-08-01T07:13:27;1.35;;;1.05;;
66487;SDS011;53304;54.550;18.526;2022-08-01T07:15:55;1.50;;;1.20;;
66487;SDS011;53304;54.550;18.526;2022-08-01T07:18:23;2.17;;;1.30;;
66487;SDS011;53304;54.550;18.526;2022-08-01T07:20:51;2.00;;;1.10;;
66487;SDS011;53304;54.550;18.526;2022-08-01T07:23:19;1.70;;;1.17;;
66487;SDS011;53304;54.550;18.526;2022-08-01T07:25:45;2.03;;;1.30;;
66487;SDS011;53304;54.550;18.526;2022-08-01T07:28:14;1.92;;;1.20;;
66487;SDS011;53304;54.550;18.526;2022-08-01T07:30:42;1.30;;;1.02;;
66487;SDS011;53304;54.550;18.526;2022-08-01T07:33:10;2.22;;;1.17;;
66487;SDS011;53304;54.550;18.526;2022-08-01T07:35:35;1.50;;;1.20;;
66487;SDS011;53304;54.550;18.526;2022-08-01T07:38:03;1.90;;;1.25;;
66487;SDS011;53304;54.550;18.526;2022-08-01T07:40:31;3.05;;;1.40;;
66487;SDS011;53304;54.550;18.526;2022-08-01T07:43:00;1.52;;;1.00;;
66487;SDS011;53304;54.550;18.526;2022-08-01T07:45:25;1.92;;;1.15;;
66487;SDS011;53304;54.550;18.526;2022-08-01T07:47:56;1.35;;;1.10;;
66487;SDS011;53304;54.550;18.526;2022-08-01T07:50:21;1.75;;;1.10;;
66487;SDS011;53304;54.550;18.526;2022-08-01T07:52:51;1.23;;;1.00;;
66487;SDS011;53304;54.550;18.526;2022-08-01T07:55:21;1.75;;;1.10;;
66487;SDS011;53304;54.550;18.526;2022-08-01T07:57:47;1.73;;;1.20;;
66487;SDS011;53304;54.550;18.526;2022-08-01T08:00:12;1.73;;;1.08;;
66487;SDS011;53304;54.550;18.526;2022-08-01T08:02:38;1.60;;;1.10;;
66487;SDS011;53304;54.550;18.526;2022-08-01T08:05:06;1.40;;;1.10;;
66487;SDS011;53304;54.550;18.526;2022-08-01T08:07:34;2.08;;;1.20;;
66487;SDS011;53304;54.550;18.526;2022-08-01T08:10:00;1.67;;;1.13;;
66487;SDS011;53304;54.550;18.526;2022-08-01T08:12:28;1.85;;;1.10;;
66487;SDS011;53304;54.550;18.526;2022-08-01T08:14:55;1.73;;;1.20;;
66487;SDS011;53304;54.550;18.526;2022-08-01T08:17:25;1.85;;;1.20;;
66487;SDS011;53304;54.550;18.526;2022-08-01T08:19:51;1.27;;;1.10;;
66487;SDS011;53304;54.550;18.526;2022-08-01T08:22:16;2.08;;;1.15;;
66487;SDS011;53304;54.550;18.526;2022-08-01T08:24:42;1.23;;;1.10;;
66487;SDS011;53304;54.550;18.526;2022-08-01T08:27:07;1.38;;;1.20;;
66487;SDS011;53304;54.550;18.526;2022-08-01T08:29:35;1.33;;;1.10;;
66487;SDS011;53304;54.550;18.526;2022-08-01T08:32:03;1.40;;;1.20;;
66487;SDS011;53304;54.550;18.526;2022-08-01T08:34:28;2.20;;;1.20;;
66487;SDS011;53304;54.550;18.526;2022-08-01T08:36:56;1.55;;;1.20;;
66487;SDS011;53304;54.550;18.526;2022-08-01T08:39:25;1.40;;;1.20;;
66487;SDS011;53304;54.550;18.526;2022-08-01T08:41:51;0.90;;;0.90;;
66487;SDS011;53304;54.550;18.526;2022-08-01T08:44:17;1.60;;;1.00;;
66487;SDS011;53304;54.550;18.526;2022-08-01T08:46:48;1.38;;;1.10;;
66487;SDS011;53304;54.550;18.526;2022-08-01T08:49:17;1.58;;;1.20;;
66487;SDS011;53304;54.550;18.526;2022-08-01T08:51:49;1.67;;;1.10;;
66487;SDS011;53304;54.550;18.526;2022-08-01T08:54:18;2.85;;;1.17;;
66487;SDS011;53304;54.550;18.526;2022-08-01T08:56:48;1.98;;;1.13;;
66487;SDS011;53304;54.550;18.526;2022-08-01T08:59:15;1.63;;;1.15;;
66487;SDS011;53304;54.550;18.526;2022-08-01T09:01:41;1.38;;;1.10;;
66487;SDS011;53304;54.550;18.526;2022-08-01T09:04:07;1.30;;;1.10;;
66487;SDS011;53304;54.550;18.526;2022-08-01T09:06:32;1.83;;;1.10;;
66487;SDS011;53304;54.550;18.526;2022-08-01T09:08:58;2.05;;;1.20;;
66487;SDS011;53304;54.550;18.526;2022-08-01T09:11:24;1.75;;;1.08;;
66487;SDS011;53304;54.550;18.526;2022-08-01T09:14:04;1.40;;;1.10;;
66487;SDS011;53304;54.550;18.526;2022-08-01T09:16:43;1.45;;;1.10;;
66487;SDS011;53304;54.550;18.526;2022-08-01T09:19:18;1.60;;;1.20;;
66487;SDS011;53304;54.550;18.526;2022-08-01T09:21:58;2.65;;;1.00;;
66487;SDS011;53304;54.550;18.526;2022-08-01T09:24:25;2.10;;;1.20;;
66487;SDS011;53304;54.550;18.526;2022-08-01T09:26:54;1.23;;;1.02;;
66487;SDS011;53304;54.550;18.526;2022-08-01T09:29:23;2.30;;;1.10;;
66487;SDS011;53304;54.550;18.526;2022-08-01T09:31:50;1.10;;;1.00;;
66487;SDS011;53304;54.550;18.526;2022-08-01T09:34:23;1.27;;;1.00;;
66487;SDS011;53304;54.550;18.526;2022-08-01T09:36:53;2.50;;;1.20;;
66487;SDS011;53304;54.550;18.526;2022-08-01T09:39:24;1.65;;;1.10;;
66487;SDS011;53304;54.550;18.526;2022-08-01T09:41:50;1.30;;;1.00;;
66487;SDS011;53304;54.550;18.526;2022-08-01T09:44:17;1.77;;;1.10;;
66487;SDS011;53304;54.550;18.526;2022-08-01T09:49:58;2.80;;;1.40;;
66487;SDS011;53304;54.550;18.526;2022-08-01T09:52:26;1.20;;;1.08;;
66487;SDS011;53304;54.550;18.526;2022-08-01T09:54:53;1.80;;;1.10;;
66487;SDS011;53304;54.550;18.526;2022-08-01T09:57:23;1.38;;;1.10;;
66487;SDS011;53304;54.550;18.526;2022-08-01T09:59:49;1.10;;;1.00;;
66487;SDS011;53304;54.550;18.526;2022-08-01T10:04:54;1.65;;;1.00;;
66487;SDS011;53304;54.550;18.526;2022-08-01T10:07:20;1.80;;;1.00;;
66487;SDS011;53304;54.550;18.526;2022-08-01T10:09:46;1.77;;;1.20;;
66487;SDS011;53304;54.550;18.526;2022-08-01T10:12:12;1.75;;;1.05;;
66487;SDS011;53304;54.550;18.526;2022-08-01T10:17:13;1.58;;;1.00;;
66487;SDS011;53304;54.550;18.526;2022-08-01T10:19:40;1.35;;;1.00;;
66487;SDS011;53304;54.550;18.526;2022-08-01T10:22:10;1.45;;;1.10;;
66487;SDS011;53304;54.550;18.526;2022-08-01T10:24:41;2.38;;;1.23;;
66487;SDS011;53304;54.550;18.526;2022-08-01T10:27:13;1.17;;;0.90;;
66487;SDS011;53304;54.550;18.526;2022-08-01T10:29:43;1.90;;;1.20;;
66487;SDS011;53304;54.550;18.526;2022-08-01T10:32:12;1.70;;;1.13;;
66487;SDS011;53304;54.550;18.526;2022-08-01T10:34:40;1.60;;;1.10;;
66487;SDS011;53304;54.550;18.526;2022-08-01T10:37:08;1.60;;;1.17;;
66487;SDS011;53304;54.550;18.526;2022-08-01T10:39:38;1.92;;;1.13;;
66487;SDS011;53304;54.550;18.526;2022-08-01T10:42:09;1.98;;;1.10;;
66487;SDS011;53304;54.550;18.526;2022-08-01T10:44:35;1.08;;;0.95;;
66487;SDS011;53304;54.550;18.526;2022-08-01T10:47:06;1.95;;;1.20;;
66487;SDS011;53304;54.550;18.526;2022-08-01T10:49:39;1.70;;;1.20;;
66487;SDS011;53304;54.550;18.526;2022-08-01T10:52:35;2.25;;;1.30;;
66487;SDS011;53304;54.550;18.526;2022-08-01T10:55:03;1.35;;;1.00;;
66487;SDS011;53304;54.550;18.526;2022-08-01T10:57:43;1.95;;;1.10;;
66487;SDS011;53304;54.550;18.526;2022-08-01T11:00:15;2.22;;;1.10;;
66487;SDS011;53304;54.550;18.526;2022-08-01T11:02:56;1.25;;;1.00;;
66487;SDS011;53304;54.550;18.526;2022-08-01T11:05:30;1.45;;;1.05;;
66487;SDS011;53304;54.550;18.526;2022-08-01T11:07:58;1.17;;;1.08;;
66487;SDS011;53304;54.550;18.526;2022-08-01T11:10:46;1.33;;;1.00;;
66487;SDS011;53304;54.550;18.526;2022-08-01T11:13:12;1.95;;;1.10;;
66487;SDS011;53304;54.550;18.526;2022-08-01T11:15:38;1.90;;;1.10;;
66487;SDS011;53304;54.550;18.526;2022-08-01T11:20:57;1.65;;;1.05;;
66487;SDS011;53304;54.550;18.526;2022-08-01T11:23:25;1.20;;;1.10;;
66487;SDS011;53304;54.550;18.526;2022-08-01T11:28:22;1.33;;;1.10;;
66487;SDS011;53304;54.550;18.526;2022-08-01T11:30:53;1.75;;;1.00;;
66487;SDS011;53304;54.550;18.526;2022-08-01T11:38:36;1.70;;;1.20;;
66487;SDS011;53304;54.550;18.526;2022-08-01T11:59:50;2.13;;;1.10;;
66487;SDS011;53304;54.550;18.526;2022-08-01T12:04:52;1.00;;;0.90;;
66487;SDS011;53304;54.550;18.526;2022-08-01T12:07:19;1.20;;;1.00;;
66487;SDS011;53304;54.550;18.526;2022-08-01T12:09:44;2.10;;;1.10;;
66487;SDS011;53304;54.550;18.526;2022-08-01T12:12:11;2.00;;;1.10;;
66487;SDS011;53304;54.550;18.526;2022-08-01T12:14:42;1.40;;;1.10;;
66487;SDS011;53304;54.550;18.526;2022-08-01T12:17:08;1.63;;;1.30;;
66487;SDS011;53304;54.550;18.526;2022-08-01T12:19:36;1.55;;;1.15;;
66487;SDS011;53304;54.550;18.526;2022-08-01T12:24:35;1.63;;;0.90;;
66487;SDS011;53304;54.550;18.526;2022-08-01T12:27:01;1.83;;;1.10;;
66487;SDS011;53304;54.550;18.526;2022-08-01T12:29:30;1.23;;;1.00;;
66487;SDS011;53304;54.550;18.526;2022-08-01T12:32:22;1.52;;;1.20;;
66487;SDS011;53304;54.550;18.526;2022-08-01T12:34:49;1.40;;;1.15;;
66487;SDS011;53304;54.550;18.526;2022-08-01T12:37:18;1.92;;;1.10;;
66487;SDS011;53304;54.550;18.526;2022-08-01T12:39:44;1.55;;;1.10;;
66487;SDS011;53304;54.550;18.526;2022-08-01T12:42:10;1.10;;;1.00;;
66487;SDS011;53304;54.550;18.526;2022-08-01T12:44:39;1.60;;;0.90;;
66487;SDS011;53304;54.550;18.526;2022-08-01T12:47:07;1.92;;;1.13;;
66487;SDS011;53304;54.550;18.526;2022-08-01T12:49:34;2.22;;;1.10;;
66487;SDS011;53304;54.550;18.526;2022-08-01T12:52:03;1.38;;;0.80;;
66487;SDS011;53304;54.550;18.526;2022-08-01T12:54:59;1.38;;;1.10;;
66487;SDS011;53304;54.550;18.526;2022-08-01T12:57:47;1.77;;;1.08;;
66487;SDS011;53304;54.550;18.526;2022-08-01T13:02:42;1.27;;;1.02;;
66487;SDS011;53304;54.550;18.526;2022-08-01T13:05:14;1.70;;;1.10;;
66487;SDS011;53304;54.550;18.526;2022-08-01T13:10:23;1.30;;;0.88;;
66487;SDS011;53304;54.550;18.526;2022-08-01T13:12:54;1.13;;;1.00;;
66487;SDS011;53304;54.550;18.526;2022-08-01T13:15:27;1.10;;;1.00;;
66487;SDS011;53304;54.550;18.526;2022-08-01T13:17:56;1.55;;;1.00;;
66487;SDS011;53304;54.550;18.526;2022-08-01T13:20:27;1.63;;;1.10;;
66487;SDS011;53304;54.550;18.526;2022-08-01T13:22:54;1.52;;;1.10;;
66487;SDS011;53304;54.550;18.526;2022-08-01T13:25:19;1.35;;;1.10;;
66487;SDS011;53304;54.550;18.526;2022-08-01T13:27:47;1.13;;;1.00;;
66487;SDS011;53304;54.550;18.526;2022-08-01T13:30:14;1.70;;;1.10;;
66487;SDS011;53304;54.550;18.526;2022-08-01T13:32:59;1.10;;;1.00;;
66487;SDS011;53304;54.550;18.526;2022-08-01T13:35:25;1.10;;;1.00;;
66487;SDS011;53304;54.550;18.526;2022-08-01T13:37:53;1.98;;;1.10;;
66487;SDS011;53304;54.550;18.526;2022-08-01T13:40:25;1.35;;;1.05;;
66487;SDS011;53304;54.550;18.526;2022-08-01T13:42:52;1.25;;;1.00;;
66487;SDS011;53304;54.550;18.526;2022-08-01T13:45:19;1.58;;;1.00;;
66487;SDS011;53304;54.550;18.526;2022-08-01T13:47:47;2.08;;;1.23;;
66487;SDS011;53304;54.550;18.526;2022-08-01T13:50:14;1.20;;;1.00;;
66487;SDS011;53304;54.550;18.526;2022-08-01T13:52:40;1.38;;;1.10;;
66487;SDS011;53304;54.550;18.526;2022-08-01T13:55:05;1.52;;;0.90;;
66487;SDS011;53304;54.550;18.526;2022-08-01T13:57:34;1.20;;;1.02;;
66487;SDS011;53304;54.550;18.526;2022-08-01T14:00:03;0.85;;;0.85;;
66487;SDS011;53304;54.550;18.526;2022-08-01T14:02:30;1.55;;;1.08;;
66487;SDS011;53304;54.550;18.526;2022-08-01T14:04:58;1.10;;;1.00;;
66487;SDS011;53304;54.550;18.526;2022-08-01T14:07:24;1.95;;;1.20;;
66487;SDS011;53304;54.550;18.526;2022-08-01T14:09:52;2.00;;;0.95;;
66487;SDS011;53304;54.550;18.526;2022-08-01T14:12:20;1.80;;;1.10;;
66487;SDS011;53304;54.550;18.526;2022-08-01T14:14:51;1.27;;;1.00;;
66487;SDS011;53304;54.550;18.526;2022-08-01T14:17:21;1.05;;;0.95;;
66487;SDS011;53304;54.550;18.526;2022-08-01T14:19:46;1.55;;;0.90;;
66487;SDS011;53304;54.550;18.526;2022-08-01T14:22:14;1.92;;;1.27;;
66487;SDS011;53304;54.550;18.526;2022-08-01T14:24:39;1.60;;;1.00;;
66487;SDS011;53304;54.550;18.526;2022-08-01T14:27:05;1.98;;;1.00;;
66487;SDS011;53304;54.550;18.526;2022-08-01T14:29:32;1.67;;;1.00;;
66487;SDS011;53304;54.550;18.526;2022-08-01T14:32:00;1.42;;;0.80;;
66487;SDS011;53304;54.550;18.526;2022-08-01T14:34:28;1.73;;;1.05;;
66487;SDS011;53304;54.550;18.526;2022-08-01T14:36:54;1.25;;;1.00;;
66487;SDS011;53304;54.550;18.526;2022-08-01T14:39:21;1.10;;;1.00;;
66487;SDS011;53304;54.550;18.526;2022-08-01T14:41:47;1.40;;;1.10;;
66487;SDS011;53304;54.550;18.526;2022-08-01T14:44:13;1.67;;;1.00;;
66487;SDS011;53304;54.550;18.526;2022-08-01T14:46:40;1.33;;;1.00;;
66487;SDS011;53304;54.550;18.526;2022-08-01T14:49:09;1.33;;;0.93;;
66487;SDS011;53304;54.550;18.526;2022-08-01T14:51:34;1.30;;;1.00;;
66487;SDS011;53304;54.550;18.526;2022-08-01T14:54:01;1.85;;;1.30;;
66487;SDS011;53304;54.550;18.526;2022-08-01T14:56:27;1.95;;;1.00;;
66487;SDS011;53304;54.550;18.526;2022-08-01T14:58:57;1.45;;;1.10;;
66487;SDS011;53304;54.550;18.526;2022-08-01T15:01:23;0.80;;;0.80;;
66487;SDS011;53304;54.550;18.526;2022-08-01T15:03:51;1.20;;;0.90;;
66487;SDS011;53304;54.550;18.526;2022-08-01T15:06:17;1.38;;;1.00;;
66487;SDS011;53304;54.550;18.526;2022-08-01T15:08:45;1.00;;;0.90;;
66487;SDS011;53304;54.550;18.526;2022-08-01T15:11:11;1.65;;;1.02;;
66487;SDS011;53304;54.550;18.526;2022-08-01T15:13:37;1.33;;;1.00;;
66487;SDS011;53304;54.550;18.526;2022-08-01T15:16:02;1.10;;;1.00;;
66487;SDS011;53304;54.550;18.526;2022-08-01T15:18:30;1.00;;;0.90;;
66487;SDS011;53304;54.550;18.526;2022-08-01T15:20:58;1.10;;;1.00;;
66487;SDS011;53304;54.550;18.526;2022-08-01T15:23:23;1.27;;;1.00;;
66487;SDS011;53304;54.550;18.526;2022-08-01T15:25:49;1.55;;;1.00;;
66487;SDS011;53304;54.550;18.526;2022-08-01T15:28:15;1.42;;;1.00;;
66487;SDS011;53304;54.550;18.526;2022-08-01T15:30:43;1.13;;;1.00;;
66487;SDS011;53304;54.550;18.526;2022-08-01T15:33:10;1.20;;;1.00;;
66487;SDS011;53304;54.550;18.526;2022-08-01T15:35:36;1.92;;;1.00;;
66487;SDS011;53304;54.550;18.526;2022-08-01T15:38:01;1.35;;;1.00;;
66487;SDS011;53304;54.550;18.526;2022-08-01T15:40:27;1.23;;;1.00;;